createdAt,value
2023-02-13T00:00:23.704Z,5.53
2023-02-13T00:02:50.420Z,5.98
2023-02-13T00:05:17.851Z,7.64
2023-02-13T00:07:44.614Z,3.25
2023-02-13T00:10:12.549Z,3.69
2023-02-13T00:12:39.936Z,2.81
2023-02-13T00:15:07.505Z,3.82
2023-02-13T00:17:34.607Z,3.30
2023-02-13T00:20:01.941Z,5.96
2023-02-13T00:22:28.756Z,6.38
2023-02-13T00:24:55.437Z,6.17
2023-02-13T00:27:22.395Z,6.41
2023-02-13T00:29:49.475Z,4.35
2023-02-13T00:32:16.515Z,6.51
2023-02-13T00:34:44.182Z,4.27
2023-02-13T00:37:12.136Z,6.72
2023-02-13T00:39:38.911Z,4.94
2023-02-13T00:42:06.220Z,5.92
2023-02-13T00:44:33.251Z,7.00
2023-02-13T00:47:01.554Z,6.03
2023-02-13T00:49:28.546Z,5.71
2023-02-13T00:51:55.318Z,6.27
2023-02-13T00:54:22.526Z,6.13
2023-02-13T00:56:50.097Z,4.78
2023-02-13T00:59:17.738Z,6.24
2023-02-13T01:01:45.392Z,3.97
2023-02-13T01:04:12.363Z,3.84
2023-02-13T01:06:39.265Z,5.67
2023-02-13T01:09:06.300Z,4.60
2023-02-13T01:11:33.435Z,4.62
2023-02-13T01:14:00.867Z,4.10
2023-02-13T01:16:27.991Z,2.88
2023-02-13T01:18:55.846Z,4.90
2023-02-13T01:21:26.678Z,2.63
2023-02-13T01:23:53.428Z,4.86
2023-02-13T01:26:23.429Z,3.94
2023-02-13T01:28:54.897Z,2.87
2023-02-13T01:31:22.224Z,3.29
2023-02-13T01:33:50.785Z,3.81
2023-02-13T01:36:21.214Z,5.34
2023-02-13T01:38:48.881Z,5.05
2023-02-13T01:41:15.996Z,5.38
2023-02-13T01:44:13.465Z,5.42
2023-02-13T01:46:44.111Z,2.76
2023-02-13T01:49:23.615Z,4.69
2023-02-13T01:51:54.144Z,4.85
2023-02-13T01:54:31.234Z,4.20
2023-02-13T01:57:17.148Z,3.94
2023-02-13T01:59:50.581Z,3.73
2023-02-13T02:02:19.426Z,4.83
2023-02-13T02:04:49.064Z,4.20
2023-02-13T02:07:23.531Z,5.54
2023-02-13T02:09:54.136Z,3.77
2023-02-13T02:12:58.651Z,6.58
2023-02-13T02:15:26.754Z,6.13
2023-02-13T02:17:53.489Z,4.97
2023-02-13T02:20:52.871Z,5.72
2023-02-13T02:23:48.271Z,6.09
2023-02-13T02:26:37.665Z,7.75
2023-02-13T02:29:37.479Z,6.64
2023-02-13T02:32:26.143Z,6.38
2023-02-13T02:35:02.560Z,3.92
2023-02-13T02:38:00.655Z,5.40
2023-02-13T02:40:35.176Z,6.41
2023-02-13T02:43:09.548Z,5.26
2023-02-13T02:45:58.261Z,6.70
2023-02-13T02:48:52.156Z,6.70
2023-02-13T02:51:30.858Z,4.89
2023-02-13T02:54:43.150Z,7.09
2023-02-13T02:57:16.506Z,5.87
2023-02-13T03:00:07.908Z,4.94
2023-02-13T03:02:54.095Z,5.79
2023-02-13T03:06:00.596Z,2.58
2023-02-13T03:08:47.796Z,3.48
2023-02-13T03:11:33.286Z,4.94
2023-02-13T03:14:03.084Z,4.24
2023-02-13T03:16:48.436Z,5.06
2023-02-13T03:20:02.023Z,3.07
2023-02-13T03:22:53.553Z,4.54
2023-02-13T03:25:34.925Z,4.05
2023-02-13T03:28:35.820Z,2.40
2023-02-13T03:31:35.965Z,6.79
2023-02-13T03:34:11.958Z,3.95
2023-02-13T03:37:07.636Z,4.68
2023-02-13T03:39:56.887Z,5.21
2023-02-13T03:42:32.636Z,0.73
2023-02-13T03:45:23.266Z,2.90
2023-02-13T03:47:55.158Z,6.96
2023-02-13T03:50:23.754Z,3.55
2023-02-13T03:52:53.164Z,3.40
2023-02-13T03:55:43.041Z,5.84
2023-02-13T03:58:37.204Z,6.19
2023-02-13T04:01:08.098Z,3.19
2023-02-13T04:04:08.868Z,3.02
2023-02-13T04:06:56.670Z,5.32
2023-02-13T04:09:25.257Z,7.32
2023-02-13T04:12:33.733Z,6.62
2023-02-13T04:15:15.420Z,3.31
2023-02-13T04:17:48.771Z,1.66
2023-02-13T04:20:15.948Z,5.63
2023-02-13T04:22:45.517Z,1.88
2023-02-13T04:25:15.498Z,4.79
2023-02-13T04:27:42.410Z,4.30
2023-02-13T04:30:09.679Z,2.95
2023-02-13T04:32:36.812Z,2.58
2023-02-13T04:35:04.124Z,3.00
2023-02-13T04:37:30.972Z,4.21
2023-02-13T04:39:57.679Z,4.28
2023-02-13T04:42:24.531Z,6.21
2023-02-13T04:44:51.768Z,3.45
2023-02-13T04:47:18.820Z,4.48
2023-02-13T04:49:45.498Z,4.21
2023-02-13T04:52:12.361Z,3.11
2023-02-13T04:54:39.291Z,5.73
2023-02-13T04:57:06.047Z,7.56
2023-02-13T04:59:32.929Z,6.68
2023-02-13T05:01:59.753Z,3.44
2023-02-13T05:04:27.012Z,4.08
2023-02-13T05:06:53.832Z,3.19
2023-02-13T05:09:20.810Z,7.33
2023-02-13T05:11:47.757Z,5.89
2023-02-13T05:14:14.579Z,5.70
2023-02-13T05:16:41.283Z,5.21
2023-02-13T05:19:08.041Z,2.94
2023-02-13T05:21:53.256Z,3.45
2023-02-13T05:24:20.726Z,4.42
2023-02-13T05:26:47.696Z,5.16
2023-02-13T05:29:22.644Z,6.68
2023-02-13T05:31:52.997Z,6.35
2023-02-13T05:34:21.191Z,7.30
2023-02-13T05:36:48.200Z,7.52
2023-02-13T05:39:15.988Z,8.86
2023-02-13T05:41:44.396Z,8.58
2023-02-13T05:44:11.553Z,8.07
2023-02-13T05:46:39.651Z,7.96
2023-02-13T05:49:08.654Z,5.56
2023-02-13T05:51:35.522Z,8.21
2023-02-13T05:54:02.836Z,5.36
2023-02-13T05:56:30.065Z,8.01
2023-02-13T05:58:57.615Z,6.78
2023-02-13T06:01:25.134Z,6.34
2023-02-13T06:03:52.573Z,6.88
2023-02-13T06:06:20.066Z,6.77
2023-02-13T06:08:46.837Z,7.62
2023-02-13T06:11:13.603Z,8.24
2023-02-13T06:13:40.925Z,5.91
2023-02-13T06:16:09.852Z,6.89
2023-02-13T06:18:37.801Z,7.29
2023-02-13T06:21:05.642Z,6.38
2023-02-13T06:23:32.491Z,7.15
2023-02-13T06:26:07.740Z,8.13
2023-02-13T06:28:34.856Z,4.84
2023-02-13T06:31:02.310Z,2.69
2023-02-13T06:33:31.078Z,4.12
2023-02-13T06:35:57.875Z,6.67
2023-02-13T06:38:24.649Z,6.51
2023-02-13T06:40:51.818Z,4.55
2023-02-13T06:43:18.972Z,4.17
2023-02-13T06:45:47.316Z,5.42
2023-02-13T06:48:14.699Z,4.39
2023-02-13T06:50:41.505Z,5.62
2023-02-13T06:53:08.496Z,4.64
2023-02-13T06:55:36.546Z,3.78
2023-02-13T06:58:03.303Z,4.34
2023-02-13T07:00:30.178Z,4.35
2023-02-13T07:03:05.542Z,3.62
2023-02-13T07:05:32.866Z,6.43
2023-02-13T07:07:59.897Z,5.49
2023-02-13T07:10:26.892Z,5.20
2023-02-13T07:13:04.968Z,8.13
2023-02-13T07:15:37.047Z,8.44
2023-02-13T07:18:05.442Z,7.10
2023-02-13T07:20:33.107Z,6.95
2023-02-13T07:23:01.245Z,6.17
2023-02-13T07:25:28.982Z,6.87
2023-02-13T07:27:56.187Z,7.98
2023-02-13T07:30:23.407Z,6.21
2023-02-13T07:32:52.284Z,8.34
2023-02-13T07:35:19.377Z,3.27
2023-02-13T07:37:46.366Z,4.19
2023-02-13T07:40:13.220Z,6.42
2023-02-13T07:42:39.854Z,5.54
2023-02-13T07:45:07.653Z,7.32
2023-02-13T07:47:35.187Z,7.95
2023-02-13T07:50:03.156Z,7.69
2023-02-13T07:52:30.340Z,9.07
2023-02-13T07:54:57.079Z,7.96
2023-02-13T07:57:24.054Z,7.66
2023-02-13T07:59:51.005Z,8.66
2023-02-13T08:02:17.728Z,8.08
2023-02-13T08:04:47.544Z,8.65
2023-02-13T08:07:16.415Z,8.51
2023-02-13T08:10:05.164Z,8.18
2023-02-13T08:12:35.035Z,7.30
2023-02-13T08:15:01.893Z,6.75
2023-02-13T08:17:28.615Z,6.08
2023-02-13T08:19:55.341Z,8.96
2023-02-13T08:22:22.801Z,8.60
2023-02-13T08:24:49.727Z,8.42
2023-02-13T08:27:16.685Z,8.62
2023-02-13T08:29:43.476Z,8.59
2023-02-13T08:32:10.357Z,9.59
2023-02-13T08:34:37.154Z,7.62
2023-02-13T08:37:04.375Z,8.02
2023-02-13T08:39:31.181Z,7.69
2023-02-13T08:41:57.916Z,7.12
2023-02-13T08:44:24.654Z,5.52
2023-02-13T08:46:51.403Z,7.21
2023-02-13T08:49:18.459Z,7.95
2023-02-13T08:51:45.212Z,8.09
2023-02-13T08:54:12.245Z,7.73
2023-02-13T08:56:39.382Z,7.81
2023-02-13T08:59:06.397Z,7.47
2023-02-13T09:01:33.187Z,8.15
2023-02-13T09:04:00.377Z,7.44
2023-02-13T09:06:27.773Z,7.93
2023-02-13T09:08:55.357Z,8.08
2023-02-13T09:11:23.534Z,8.11
2023-02-13T09:13:54.269Z,9.05
2023-02-13T09:16:21.473Z,8.04
2023-02-13T09:18:49.053Z,6.32
2023-02-13T09:21:17.085Z,6.41
2023-02-13T09:23:44.007Z,6.04
2023-02-13T09:26:12.982Z,6.94
2023-02-13T09:28:41.003Z,8.01
2023-02-13T09:31:16.663Z,8.30
2023-02-13T09:33:45.479Z,5.29
2023-02-13T09:36:16.593Z,7.08
2023-02-13T09:38:44.241Z,7.86
2023-02-13T09:41:23.384Z,7.14
2023-02-13T09:43:55.192Z,7.78
2023-02-13T09:46:29.347Z,7.72
2023-02-13T09:48:59.158Z,7.92
2023-02-13T09:51:27.843Z,7.10
2023-02-13T09:53:57.961Z,7.53
2023-02-13T09:56:52.737Z,6.27
2023-02-13T09:59:22.831Z,8.18
2023-02-13T10:01:53.796Z,6.78
2023-02-13T10:04:26.395Z,6.66
2023-02-13T10:07:47.740Z,4.62
2023-02-13T10:10:32.575Z,5.53
2023-02-13T10:13:23.798Z,5.97
2023-02-13T10:15:50.951Z,6.34
2023-02-13T10:18:32.368Z,8.65
2023-02-13T10:21:02.693Z,8.52
2023-02-13T10:23:40.651Z,8.78
2023-02-13T10:26:22.675Z,6.83
2023-02-13T10:29:41.210Z,9.00
2023-02-13T10:32:13.798Z,5.53
2023-02-13T10:34:46.101Z,8.17
2023-02-13T10:37:18.845Z,9.41
2023-02-13T10:39:49.397Z,3.69
2023-02-13T10:42:26.389Z,7.37
2023-02-13T10:45:18.029Z,8.01
2023-02-13T10:48:26.026Z,9.02
2023-02-13T10:51:10.171Z,5.52
2023-02-13T10:54:24.599Z,2.98
2023-02-13T10:56:59.918Z,8.27
2023-02-13T11:00:17.473Z,9.03
2023-02-13T11:02:44.888Z,8.22
2023-02-13T11:05:24.287Z,6.09
2023-02-13T11:07:51.724Z,5.71
2023-02-13T11:10:23.597Z,6.50
2023-02-13T11:12:51.691Z,8.83
2023-02-13T11:15:30.962Z,9.66
2023-02-13T11:18:01.293Z,8.65
2023-02-13T11:20:37.964Z,8.45
2023-02-13T11:23:29.663Z,8.97
2023-02-13T11:26:04.213Z,8.49
2023-02-13T11:28:37.870Z,8.00
2023-02-13T11:31:26.841Z,8.14
2023-02-13T11:33:53.806Z,8.61
2023-02-13T11:36:30.342Z,7.79
2023-02-13T11:38:59.816Z,8.78
2023-02-13T11:41:26.973Z,9.31
2023-02-13T11:44:01.262Z,8.93
2023-02-13T11:46:46.174Z,6.52
2023-02-13T11:49:24.754Z,6.69
2023-02-13T11:51:58.578Z,7.26
2023-02-13T11:54:41.193Z,3.05
2023-02-13T11:57:26.021Z,9.89
2023-02-13T11:59:53.591Z,10.27
2023-02-13T12:02:31.744Z,8.09
2023-02-13T12:05:23.314Z,8.21
2023-02-13T12:07:51.020Z,10.07
2023-02-13T12:10:24.134Z,8.47
2023-02-13T12:12:53.926Z,7.64
2023-02-13T12:15:26.934Z,9.67
2023-02-13T12:18:08.330Z,9.82
2023-02-13T12:21:03.214Z,8.76
2023-02-13T12:24:04.549Z,10.09
2023-02-13T12:26:42.772Z,9.09
2023-02-13T12:29:27.722Z,8.41
2023-02-13T12:32:31.556Z,8.39
2023-02-13T12:35:16.774Z,7.33
2023-02-13T12:37:53.647Z,9.49
2023-02-13T12:40:28.593Z,7.82
2023-02-13T12:43:22.346Z,9.06
2023-02-13T12:46:01.337Z,9.34
2023-02-13T12:48:28.157Z,7.82
2023-02-13T12:51:06.382Z,7.84
2023-02-13T12:54:07.519Z,8.80
2023-02-13T12:57:02.388Z,7.15
2023-02-13T12:59:50.613Z,9.71
2023-02-13T13:02:52.563Z,7.23
2023-02-13T13:05:45.251Z,9.84
2023-02-13T13:08:25.486Z,8.58
2023-02-13T13:11:16.431Z,7.13
2023-02-13T13:14:03.667Z,7.64
2023-02-13T13:16:45.366Z,8.15
2023-02-13T13:19:50.512Z,10.50
2023-02-13T13:22:33.873Z,9.08
2023-02-13T13:25:20.356Z,10.29
2023-02-13T13:27:51.142Z,8.66
2023-02-13T13:30:25.132Z,10.22
2023-02-13T13:33:04.941Z,7.77
2023-02-13T13:35:33.574Z,10.75
2023-02-13T13:38:15.229Z,11.22
2023-02-13T13:40:57.386Z,10.26
2023-02-13T13:43:40.989Z,9.01
2023-02-13T13:46:08.124Z,10.48
2023-02-13T13:48:53.241Z,10.77
2023-02-13T13:51:20.696Z,11.33
2023-02-13T13:54:20.160Z,11.17
2023-02-13T13:56:53.117Z,11.61
2023-02-13T13:59:51.715Z,11.67
2023-02-13T14:02:18.697Z,10.80
2023-02-13T14:05:02.787Z,10.87
2023-02-13T14:07:38.574Z,9.27
2023-02-13T14:10:06.613Z,10.08
2023-02-13T14:12:33.266Z,9.38
2023-02-13T14:15:01.816Z,10.21
2023-02-13T14:17:46.777Z,10.95
2023-02-13T14:20:41.322Z,10.01
2023-02-13T14:23:17.594Z,11.63
2023-02-13T14:25:44.970Z,11.38
2023-02-13T14:28:23.382Z,12.52
2023-02-13T14:30:55.786Z,11.68
2023-02-13T14:33:30.145Z,9.25
2023-02-13T14:36:08.550Z,9.22
2023-02-13T14:38:36.549Z,10.46
2023-02-13T14:41:04.164Z,10.61
2023-02-13T14:43:35.878Z,9.29
2023-02-13T14:46:20.874Z,10.99
2023-02-13T14:49:06.959Z,9.48
2023-02-13T14:51:41.416Z,9.55
2023-02-13T14:54:49.632Z,8.22
2023-02-13T14:57:29.823Z,8.78
2023-02-13T15:00:01.323Z,8.96
2023-02-13T15:02:33.556Z,9.50
2023-02-13T15:05:04.829Z,9.89
2023-02-13T15:07:36.693Z,7.89
2023-02-13T15:10:32.181Z,6.66
2023-02-13T15:13:00.610Z,4.61
2023-02-13T15:15:29.891Z,8.77
2023-02-13T15:18:37.208Z,4.98
2023-02-13T15:21:04.653Z,7.42
2023-02-13T15:23:33.903Z,8.24
2023-02-13T15:26:06.268Z,6.83
2023-02-13T15:28:35.032Z,4.96
2023-02-13T15:31:07.359Z,5.46
2023-02-13T15:33:48.873Z,7.84
2023-02-13T15:36:22.468Z,7.75
2023-02-13T15:38:49.223Z,6.47
2023-02-13T15:41:28.305Z,7.14
2023-02-13T15:44:00.190Z,6.05
2023-02-13T15:46:38.795Z,7.67
2023-02-13T15:49:09.402Z,6.42
2023-02-13T15:51:36.694Z,5.71
2023-02-13T15:54:06.617Z,7.68
2023-02-13T15:56:34.185Z,8.04
2023-02-13T15:59:01.783Z,6.47
2023-02-13T16:01:29.312Z,7.15
2023-02-13T16:04:09.427Z,4.44
2023-02-13T16:06:36.640Z,5.32
2023-02-13T16:09:04.512Z,6.45
2023-02-13T16:11:45.226Z,5.52
2023-02-13T16:14:24.808Z,7.02
2023-02-13T16:17:16.984Z,7.30
2023-02-13T16:20:06.823Z,6.69
2023-02-13T16:23:02.779Z,8.16
2023-02-13T16:25:32.177Z,4.57
2023-02-13T16:28:01.579Z,7.55
2023-02-13T16:30:33.363Z,7.77
2023-02-13T16:33:15.629Z,8.32
2023-02-13T16:35:51.395Z,5.21
2023-02-13T16:38:31.844Z,7.16
2023-02-13T16:41:28.894Z,7.69
2023-02-13T16:44:00.103Z,7.75
2023-02-13T16:46:26.793Z,8.08
2023-02-13T16:48:56.621Z,8.40
2023-02-13T16:51:36.639Z,6.37
2023-02-13T16:54:19.849Z,4.58
2023-02-13T16:56:49.962Z,5.81
2023-02-13T16:59:38.227Z,6.36
2023-02-13T17:02:25.385Z,7.10
2023-02-13T17:05:11.854Z,7.76
2023-02-13T17:07:51.148Z,8.08
2023-02-13T17:10:27.332Z,6.72
2023-02-13T17:12:56.668Z,4.82
2023-02-13T17:15:25.555Z,7.44
2023-02-13T17:17:53.834Z,7.34
2023-02-13T17:20:32.636Z,6.62
2023-02-13T17:23:02.556Z,6.35
2023-02-13T17:25:35.425Z,5.18
2023-02-13T17:28:07.564Z,5.16
2023-02-13T17:30:34.467Z,4.13
2023-02-13T17:33:12.077Z,6.96
2023-02-13T17:35:38.956Z,5.40
2023-02-13T17:38:07.568Z,6.81
2023-02-13T17:40:34.278Z,4.92
2023-02-13T17:43:01.480Z,6.98
2023-02-13T17:45:30.713Z,5.02
2023-02-13T17:47:58.293Z,5.25
2023-02-13T17:50:30.517Z,4.07
2023-02-13T17:52:58.365Z,7.24
2023-02-13T17:55:28.727Z,7.93
2023-02-13T17:57:57.128Z,7.42
2023-02-13T18:00:29.534Z,7.33
2023-02-13T18:02:58.444Z,8.47
2023-02-13T18:05:25.936Z,7.97
2023-02-13T18:07:52.697Z,4.83
2023-02-13T18:10:25.924Z,7.95
2023-02-13T18:12:54.506Z,7.54
2023-02-13T18:15:21.865Z,6.38
2023-02-13T18:17:49.128Z,7.74
2023-02-13T18:20:18.956Z,8.80
2023-02-13T18:22:45.748Z,5.75
2023-02-13T18:25:13.706Z,6.91
2023-02-13T18:27:40.431Z,8.14
2023-02-13T18:30:09.247Z,6.82
2023-02-13T18:32:36.185Z,5.79
2023-02-13T18:35:03.329Z,6.65
2023-02-13T18:37:30.657Z,6.22
2023-02-13T18:39:57.550Z,5.50
2023-02-13T18:42:24.426Z,3.75
2023-02-13T18:44:51.463Z,4.26
2023-02-13T18:47:18.849Z,5.38
2023-02-13T18:49:46.501Z,5.09
2023-02-13T18:52:13.426Z,6.05
2023-02-13T18:54:40.666Z,6.00
2023-02-13T18:57:08.593Z,3.64
2023-02-13T18:59:35.313Z,4.51
2023-02-13T19:02:04.116Z,3.83
2023-02-13T19:04:31.474Z,6.11
2023-02-13T19:06:58.370Z,4.82
2023-02-13T19:09:25.745Z,3.60
2023-02-13T19:11:53.129Z,4.20
2023-02-13T19:14:19.948Z,3.23
2023-02-13T19:16:46.671Z,3.35
2023-02-13T19:19:13.561Z,4.78
2023-02-13T19:21:41.282Z,3.71
2023-02-13T19:24:09.713Z,2.38
2023-02-13T19:26:36.677Z,3.62
2023-02-13T19:29:04.498Z,3.87
2023-02-13T19:31:32.835Z,3.85
2023-02-13T19:34:00.864Z,5.38
2023-02-13T19:36:31.057Z,2.78
2023-02-13T19:39:02.742Z,3.66
2023-02-13T19:41:31.307Z,4.57
2023-02-13T19:43:58.575Z,3.07
2023-02-13T19:46:28.118Z,6.06
2023-02-13T19:48:55.524Z,4.19
2023-02-13T19:51:25.068Z,5.62
2023-02-13T19:53:58.192Z,4.17
2023-02-13T19:56:27.247Z,6.17
2023-02-13T19:58:54.084Z,5.06
2023-02-13T20:01:23.124Z,0.64
2023-02-13T20:03:50.976Z,2.27
2023-02-13T20:06:38.904Z,5.18
2023-02-13T20:09:09.178Z,4.40
2023-02-13T20:11:36.416Z,2.60
2023-02-13T20:14:05.446Z,4.40
2023-02-13T20:16:35.526Z,7.18
2023-02-13T20:19:07.119Z,5.46
2023-02-13T20:21:34.973Z,4.40
2023-02-13T20:24:03.244Z,6.77
2023-02-13T20:26:31.254Z,3.75
2023-02-13T20:29:00.035Z,5.22
2023-02-13T20:31:27.792Z,5.92
2023-02-13T20:33:55.089Z,5.47
2023-02-13T20:36:24.648Z,5.88
2023-02-13T20:38:54.839Z,3.70
2023-02-13T20:41:24.300Z,6.33
2023-02-13T20:43:51.364Z,7.14
2023-02-13T20:46:18.948Z,5.81
2023-02-13T20:48:47.575Z,6.93
2023-02-13T20:51:16.993Z,5.48
2023-02-13T20:53:45.572Z,6.41
2023-02-13T20:56:18.130Z,7.17
2023-02-13T20:58:46.830Z,5.40
2023-02-13T21:01:37.501Z,4.98
2023-02-13T21:04:04.269Z,4.73
2023-02-13T21:06:34.605Z,7.41
2023-02-13T21:09:02.713Z,7.98
2023-02-13T21:11:30.735Z,6.57
2023-02-13T21:13:58.048Z,4.44
2023-02-13T21:16:26.737Z,5.34
2023-02-13T21:18:56.237Z,7.08
2023-02-13T21:21:25.199Z,4.63
2023-02-13T21:23:56.443Z,6.17
2023-02-13T21:26:24.484Z,7.14
2023-02-13T21:28:51.886Z,7.83
2023-02-13T21:31:24.005Z,5.69
2023-02-13T21:33:52.424Z,2.55
2023-02-13T21:36:19.848Z,4.24
2023-02-13T21:38:46.995Z,6.55
2023-02-13T21:41:16.373Z,3.43
2023-02-13T21:43:46.825Z,2.78
2023-02-13T21:46:15.629Z,5.70
2023-02-13T21:48:42.717Z,7.73
2023-02-13T21:51:17.697Z,6.98
2023-02-13T21:53:45.903Z,5.01
2023-02-13T21:56:18.396Z,5.32
2023-02-13T21:58:46.190Z,5.02
2023-02-13T22:01:26.837Z,5.06
2023-02-13T22:04:01.418Z,6.93
2023-02-13T22:06:33.482Z,4.15
2023-02-13T22:09:05.870Z,7.16
2023-02-13T22:11:33.490Z,5.68
2023-02-13T22:14:02.683Z,5.69
2023-02-13T22:16:32.288Z,7.23
2023-02-13T22:18:59.927Z,6.24
2023-02-13T22:21:29.327Z,7.11
2023-02-13T22:23:56.064Z,4.60
2023-02-13T22:26:24.565Z,6.48
2023-02-13T22:28:52.221Z,6.92
2023-02-13T22:31:19.290Z,4.09
2023-02-13T22:33:52.356Z,5.73
2023-02-13T22:36:25.968Z,7.56
2023-02-13T22:38:53.260Z,5.48
2023-02-13T22:41:23.273Z,7.45
2023-02-13T22:43:51.241Z,8.27
2023-02-13T22:46:25.360Z,7.36
2023-02-13T22:48:53.686Z,2.93
2023-02-13T22:51:24.504Z,5.62
2023-02-13T22:53:55.719Z,5.67
2023-02-13T22:56:23.642Z,5.38
2023-02-13T22:58:50.531Z,3.47
2023-02-13T23:01:20.220Z,5.42
2023-02-13T23:03:47.661Z,6.38
2023-02-13T23:06:15.701Z,5.91
2023-02-13T23:08:43.243Z,4.75
2023-02-13T23:11:35.511Z,3.01
2023-02-13T23:14:02.901Z,5.96
2023-02-13T23:16:49.417Z,6.56
2023-02-13T23:19:17.013Z,7.21
2023-02-13T23:21:44.090Z,4.27
2023-02-13T23:24:10.959Z,5.90
2023-02-13T23:26:37.657Z,4.60
2023-02-13T23:29:04.601Z,5.00
2023-02-13T23:31:31.781Z,6.38
2023-02-13T23:33:58.593Z,7.32
2023-02-13T23:36:25.745Z,3.48
2023-02-13T23:38:52.431Z,3.38
2023-02-13T23:41:19.160Z,5.07
2023-02-13T23:43:45.864Z,5.60
2023-02-13T23:46:12.669Z,1.00
2023-02-13T23:48:39.449Z,5.79
2023-02-13T23:51:06.228Z,6.76
2023-02-13T23:53:37.157Z,6.30
2023-02-13T23:56:05.054Z,5.78
2023-02-13T23:58:32.095Z,5.36
